Time;durP1;ratioP1;P1;durP2;ratioP2;P2;SDS_P1;SDS_P2;PMS_P1;PMS_P2;Temp;Humidity;BMP_temperature;BMP_pressure;BME280_temperature;BME280_humidity;BME280_pressure;Samples;Min_cycle;Max_cycle;Signal;HPM_P1;HPM_P2
2023/05/19 00:01:59;;;;;;;14.02;11.85;;;19.30;56.20;;;;;;6177702;22;20490;-57
2023/05/19 00:04:26;;;;;;;15.32;11.35;;;19.30;56.50;;;;;;6179502;23;20009;-56
2023/05/19 00:06:52;;;;;;;11.68;10.48;;;19.30;56.40;;;;;;6179948;22;20016;-56
2023/05/19 00:09:19;;;;;;;13.75;11.48;;;19.30;56.40;;;;;;6178921;22;20009;-58
2023/05/19 00:11:44;;;;;;;15.13;11.80;;;19.20;56.40;;;;;;6179956;22;20012;-56
2023/05/19 00:14:11;;;;;;;13.38;11.23;;;19.30;56.50;;;;;;6179459;22;20002;-57
2023/05/19 00:16:37;;;;;;;13.00;11.60;;;19.20;56.70;;;;;;6180252;22;20012;-57
2023/05/19 00:19:05;;;;;;;14.98;11.90;;;19.20;56.90;;;;;;6179513;23;19997;-56
2023/05/19 00:21:31;;;;;;;12.82;11.40;;;19.20;57.20;;;;;;6178933;22;20340;-57
2023/05/19 00:23:57;;;;;;;12.85;11.13;;;19.20;57.30;;;;;;6180257;22;20460;-56
2023/05/19 00:26:23;;;;;;;14.43;12.02;;;19.20;57.50;;;;;;6179217;22;20055;-56
2023/05/19 00:28:49;;;;;;;13.20;11.52;;;19.20;57.70;;;;;;6180122;22;20415;-58
2023/05/19 00:31:15;;;;;;;13.48;12.00;;;19.10;57.60;;;;;;6179445;22;20005;-57
2023/05/19 00:33:41;;;;;;;12.40;11.05;;;19.10;57.40;;;;;;6179870;22;20031;-56
2023/05/19 00:36:07;;;;;;;13.13;11.02;;;19.10;57.60;;;;;;6179322;22;20005;-56
2023/05/19 00:38:34;;;;;;;14.10;11.73;;;19.10;58.10;;;;;;6180304;22;20013;-56
2023/05/19 00:41:02;;;;;;;15.63;11.70;;;19.10;59.00;;;;;;6179691;22;20080;-57
2023/05/19 00:43:29;;;;;;;14.05;11.60;;;19.10;59.30;;;;;;6179684;22;20005;-55
2023/05/19 00:45:55;;;;;;;12.75;11.45;;;19.00;59.60;;;;;;6179534;22;20068;-56
2023/05/19 00:48:21;;;;;;;13.98;11.55;;;18.90;60.00;;;;;;6179764;22;20429;-57
2023/05/19 00:50:48;;;;;;;13.82;12.30;;;18.90;60.20;;;;;;6179742;22;20467;-57
2023/05/19 00:53:15;;;;;;;14.15;11.32;;;18.80;60.00;;;;;;6179499;22;20371;-57
2023/05/19 00:55:41;;;;;;;13.75;11.73;;;18.80;59.80;;;;;;6179740;23;20109;-57
2023/05/19 00:58:09;;;;;;;13.68;12.20;;;18.80;59.80;;;;;;6180597;22;20001;-55
2023/05/19 01:00:35;;;;;;;15.40;11.95;;;18.70;59.90;;;;;;6179604;22;20016;-55
2023/05/19 01:03:01;;;;;;;13.98;11.25;;;18.70;59.40;;;;;;6178989;22;20076;-56
2023/05/19 01:05:27;;;;;;;14.68;11.93;;;18.70;58.90;;;;;;6179962;22;20004;-56
2023/05/19 01:07:55;;;;;;;14.20;11.82;;;18.70;58.50;;;;;;6179289;22;20009;-53
2023/05/19 01:10:21;;;;;;;14.63;12.82;;;18.70;58.20;;;;;;6180043;22;20439;-56
2023/05/19 01:12:47;;;;;;;14.07;11.93;;;18.70;58.00;;;;;;6179450;22;20421;-57
2023/05/19 01:15:13;;;;;;;15.45;12.55;;;18.70;57.90;;;;;;6179255;22;20005;-56
2023/05/19 01:17:50;;;;;;;16.20;12.18;;;18.80;57.80;;;;;;6178221;22;20531;-57
2023/05/19 01:20:30;;;;;;;13.50;12.07;;;18.80;58.00;;;;;;6179541;22;20054;-56
2023/05/19 01:23:35;;;;;;;15.68;12.60;;;18.80;58.20;;;;;;6179158;22;20514;-54
2023/05/19 01:26:30;;;;;;;13.82;12.23;;;18.80;58.60;;;;;;6180586;22;20016;-56
2023/05/19 01:29:07;;;;;;;14.02;12.32;;;18.80;58.80;;;;;;6178739;22;20005;-56
2023/05/19 01:31:35;;;;;;;13.77;11.80;;;18.80;59.20;;;;;;6179639;22;20020;-54
2023/05/19 01:34:03;;;;;;;17.10;12.85;;;18.80;59.20;;;;;;6179465;22;20009;-57
2023/05/19 01:36:32;;;;;;;15.55;12.07;;;18.80;59.90;;;;;;6178149;22;20005;-55
2023/05/19 01:38:58;;;;;;;14.63;12.73;;;18.70;60.10;;;;;;6179735;22;20009;-57
2023/05/19 01:41:27;;;;;;;14.63;12.05;;;18.70;60.20;;;;;;6179593;23;20059;-56
2023/05/19 01:43:53;;;;;;;14.07;12.00;;;18.60;60.00;;;;;;6180313;22;20233;-55
2023/05/19 01:46:20;;;;;;;13.68;11.93;;;18.60;60.00;;;;;;6179809;22;20005;-56
2023/05/19 01:48:47;;;;;;;14.10;12.60;;;18.60;60.10;;;;;;6180103;22;20088;-57
2023/05/19 01:51:13;;;;;;;16.73;12.95;;;18.60;60.30;;;;;;6179612;22;20037;-55
2023/05/19 01:53:38;;;;;;;15.20;12.70;;;18.60;60.50;;;;;;6179545;22;20005;-56
2023/05/19 01:56:05;;;;;;;15.43;12.43;;;18.60;60.50;;;;;;6180315;22;20005;-56
2023/05/19 01:58:58;;;;;;;13.75;11.48;;;18.50;59.60;;;;;;6179288;22;20062;-55
2023/05/19 02:01:37;;;;;;;15.40;12.90;;;18.50;59.30;;;;;;6179676;22;20020;-57
2023/05/19 02:04:38;;;;;;;14.13;12.38;;;18.50;59.80;;;;;;6179013;22;20329;-57
2023/05/19 02:07:24;;;;;;;;;;;18.50;60.10;;;;;;6180803;22;20012;-55
2023/05/19 02:10:05;;;;;;;12.75;11.45;;;18.50;60.00;;;;;;6180687;22;19900;-55
2023/05/19 02:12:39;;;;;;;13.67;12.17;;;18.50;61.20;;;;;;6180404;22;20001;-55
2023/05/19 02:15:20;;;;;;;13.25;11.50;;;18.50;60.30;;;;;;6180375;22;20004;-54
2023/05/19 02:17:50;;;;;;;13.40;11.68;;;18.50;59.80;;;;;;6180635;22;20005;-54
2023/05/19 02:20:16;;;;;;;13.13;10.73;;;18.50;59.40;;;;;;6180969;22;20426;-55
2023/05/19 02:22:42;;;;;;;15.75;12.68;;;18.50;59.60;;;;;;6179418;23;20027;-55
2023/05/19 02:25:09;;;;;;;17.58;13.05;;;18.50;60.30;;;;;;6181151;22;20036;-56
2023/05/19 02:27:36;;;;;;;13.65;12.18;;;18.60;61.10;;;;;;6180013;22;20033;-56
2023/05/19 02:30:07;;;;;;;15.48;12.30;;;18.60;61.20;;;;;;6179990;22;20009;-55
2023/05/19 02:32:33;;;;;;;14.05;12.32;;;18.60;61.40;;;;;;6180808;22;20029;-56
2023/05/19 02:34:58;;;;;;;15.50;12.57;;;18.50;61.80;;;;;;6180470;22;19997;-54
2023/05/19 02:37:27;;;;;;;14.63;11.98;;;18.50;62.20;;;;;;6180225;22;20011;-57
2023/05/19 02:39:53;;;;;;;15.07;12.50;;;18.50;62.40;;;;;;6180829;22;20602;-57
2023/05/19 02:42:18;;;;;;;14.75;12.73;;;18.50;62.80;;;;;;6179257;22;20008;-55
2023/05/19 02:44:45;;;;;;;13.50;12.10;;;18.50;63.10;;;;;;6180063;22;20015;-58
2023/05/19 02:47:10;;;;;;;13.73;12.32;;;18.50;63.20;;;;;;6180491;22;20001;-57
2023/05/19 02:49:36;;;;;;;13.82;12.32;;;18.50;63.40;;;;;;6180430;22;20020;-57
2023/05/19 02:52:05;;;;;;;12.45;11.25;;;18.50;63.70;;;;;;6180457;22;20095;-57
2023/05/19 02:54:32;;;;;;;12.85;11.05;;;18.50;64.10;;;;;;6178805;22;20017;-56
2023/05/19 02:56:58;;;;;;;12.25;10.85;;;18.50;64.10;;;;;;6180661;22;20008;-54
2023/05/19 02:59:24;;;;;;;11.73;10.20;;;18.50;63.40;;;;;;6180540;22;20005;-56
2023/05/19 03:01:55;;;;;;;12.40;11.15;;;18.50;63.10;;;;;;6180569;22;20002;-57
2023/05/19 03:04:21;;;;;;;14.35;11.80;;;18.60;62.50;;;;;;6179420;22;20310;-56
2023/05/19 03:06:47;;;;;;;13.10;10.98;;;18.60;62.50;;;;;;6180612;22;20001;-56
2023/05/19 03:09:13;;;;;;;12.50;10.60;;;18.70;62.50;;;;;;6284349;22;20013;-56
2023/05/19 03:11:39;;;;;;;13.88;10.77;;;18.70;62.20;;;;;;6180385;22;20023;-54
2023/05/19 03:14:04;;;;;;;11.90;10.70;;;18.70;61.50;;;;;;6179660;22;20084;-58
2023/05/19 03:16:31;;;;;;;13.07;11.15;;;18.80;60.90;;;;;;6180152;22;20433;-56
2023/05/19 03:18:57;;;;;;;11.88;10.68;;;18.90;60.50;;;;;;6178895;22;20005;-56
2023/05/19 03:21:22;;;;;;;12.75;10.80;;;19.00;61.20;;;;;;6180223;22;20006;-56
2023/05/19 03:23:48;;;;;;;12.32;10.93;;;19.10;61.30;;;;;;6178818;22;20005;-58
2023/05/19 03:26:14;;;;;;;13.80;12.30;;;19.20;61.40;;;;;;6179159;22;20443;-57
2023/05/19 03:28:39;;;;;;;14.98;12.45;;;19.30;62.50;;;;;;6179929;22;20076;-57
2023/05/19 03:31:05;;;;;;;14.50;12.23;;;19.50;63.60;;;;;;6179047;22;20013;-56
2023/05/19 03:33:31;;;;;;;14.80;13.07;;;19.60;63.70;;;;;;6178165;22;20020;-54
2023/05/19 03:35:56;;;;;;;12.38;11.07;;;19.80;63.70;;;;;;6179667;22;20397;-56
2023/05/19 03:38:22;;;;;;;12.07;10.77;;;20.00;63.00;;;;;;6179179;22;20084;-56
2023/05/19 03:40:48;;;;;;;11.95;10.65;;;20.30;62.40;;;;;;6178667;22;20008;-56
2023/05/19 03:43:14;;;;;;;12.10;10.20;;;20.60;61.50;;;;;;6175813;22;20052;-57
2023/05/19 03:45:40;;;;;;;13.50;10.40;;;21.00;60.70;;;;;;6178282;22;20009;-53
2023/05/19 03:48:06;;;;;;;14.40;10.57;;;21.40;59.70;;;;;;6177478;22;20016;-57
2023/05/19 03:50:32;;;;;;;12.75;10.25;;;21.90;58.90;;;;;;6177807;22;20001;-57
2023/05/19 03:52:59;;;;;;;11.68;9.77;;;22.50;58.00;;;;;;6177421;22;20447;-56
2023/05/19 03:55:28;;;;;;;11.52;10.32;;;23.10;56.80;;;;;;6281376;22;20058;-57
2023/05/19 03:57:55;;;;;;;14.35;9.63;;;23.70;55.90;;;;;;6179187;22;19997;-57
2023/05/19 04:00:21;;;;;;;13.18;10.35;;;24.40;54.90;;;;;;6176284;22;20024;-58
2023/05/19 04:02:46;;;;;;;11.35;10.10;;;25.00;53.10;;;;;;6177079;22;20479;-56
2023/05/19 04:05:12;;;;;;;11.40;10.20;;;25.70;52.30;;;;;;6177521;22;20016;-57
2023/05/19 04:07:38;;;;;;;10.68;9.40;;;26.30;51.10;;;;;;6177835;22;20005;-57
2023/05/19 04:10:04;;;;;;;10.35;8.82;;;26.90;50.00;;;;;;6177429;22;20080;-57
2023/05/19 04:12:30;;;;;;;10.02;8.77;;;27.40;49.40;;;;;;6280595;22;20015;-57
2023/05/19 04:14:56;;;;;;;10.52;9.40;;;27.80;48.60;;;;;;6177716;23;20001;-56
2023/05/19 04:17:25;;;;;;;10.43;8.13;;;28.30;47.90;;;;;;6179259;22;20005;-57
2023/05/19 04:19:51;;;;;;;11.02;8.98;;;28.70;47.50;;;;;;6179781;22;20417;-56
2023/05/19 04:22:16;;;;;;;9.60;8.63;;;29.00;46.70;;;;;;6179628;22;20041;-57
2023/05/19 04:24:42;;;;;;;10.00;8.88;;;29.40;46.30;;;;;;6179493;22;20151;-57
2023/05/19 04:27:10;;;;;;;12.32;8.93;;;29.80;46.60;;;;;;6179002;22;20016;-56
2023/05/19 04:29:37;;;;;;;10.68;8.75;;;30.10;45.30;;;;;;6179279;22;20002;-57
2023/05/19 04:32:06;;;;;;;11.23;9.10;;;30.40;44.80;;;;;;6179354;22;20044;-58
2023/05/19 04:34:33;;;;;;;9.82;8.65;;;30.70;44.50;;;;;;6179182;22;20078;-57
2023/05/19 04:37:00;;;;;;;9.27;8.27;;;30.90;44.10;;;;;;6178953;22;20013;-57
2023/05/19 04:39:25;;;;;;;10.25;8.68;;;31.10;43.90;;;;;;6179050;22;20000;-57
2023/05/19 04:41:52;;;;;;;9.73;8.23;;;31.30;43.70;;;;;;6178067;22;19997;-56
2023/05/19 04:44:19;;;;;;;10.30;8.35;;;31.50;43.40;;;;;;6177184;22;20363;-57
2023/05/19 04:46:44;;;;;;;10.10;8.77;;;31.70;43.20;;;;;;6175196;22;20009;-57
2023/05/19 04:49:13;;;;;;;10.18;9.02;;;31.90;42.90;;;;;;6176701;22;20057;-58
2023/05/19 04:51:40;;;;;;;11.48;8.98;;;32.20;42.60;;;;;;6178556;22;20029;-58
2023/05/19 04:54:07;;;;;;;11.02;8.55;;;32.30;42.30;;;;;;6177589;22;20032;-58
2023/05/19 04:56:32;;;;;;;9.38;8.20;;;32.50;42.40;;;;;;6174442;22;20031;-57
2023/05/19 04:58:58;;;;;;;9.38;7.70;;;32.70;42.40;;;;;;6175466;23;20080;-58
2023/05/19 05:01:24;;;;;;;8.98;8.07;;;32.80;42.20;;;;;;6176451;22;20058;-58
2023/05/19 05:03:53;;;;;;;8.65;7.75;;;32.90;42.10;;;;;;6175367;22;20559;-58
2023/05/19 05:06:22;;;;;;;9.47;8.40;;;32.90;42.10;;;;;;6176799;22;20009;-58
2023/05/19 05:08:48;;;;;;;10.88;8.32;;;32.90;42.00;;;;;;6178168;22;20298;-57
2023/05/19 05:11:14;;;;;;;9.90;8.02;;;32.90;42.00;;;;;;6177775;22;20043;-57
2023/05/19 05:13:40;;;;;;;9.30;8.40;;;32.90;41.90;;;;;;6177396;22;20057;-57
2023/05/19 05:16:07;;;;;;;10.25;8.38;;;32.90;41.40;;;;;;6176461;22;20008;-57
2023/05/19 05:18:33;;;;;;;9.05;8.15;;;32.80;41.30;;;;;;6173921;22;20011;-58
2023/05/19 05:21:00;;;;;;;9.40;7.95;;;32.80;41.20;;;;;;6174831;22;19997;-56
2023/05/19 05:23:26;;;;;;;9.80;7.88;;;32.60;41.10;;;;;;6175557;22;20080;-57
2023/05/19 05:25:52;;;;;;;10.30;8.23;;;32.10;41.10;;;;;;6174438;22;20005;-57
2023/05/19 05:28:18;;;;;;;9.45;8.02;;;31.40;41.40;;;;;;6174564;22;20058;-56
2023/05/19 05:30:43;;;;;;;10.13;8.13;;;30.70;42.10;;;;;;6175599;22;20045;-58
2023/05/19 05:33:10;;;;;;;10.55;8.20;;;29.90;42.90;;;;;;6175730;22;20694;-57
2023/05/19 05:35:36;;;;;;;10.15;8.45;;;29.10;43.70;;;;;;6179203;22;20009;-56
2023/05/19 05:38:01;;;;;;;10.57;9.10;;;28.40;44.60;;;;;;6178269;22;20093;-57
2023/05/19 05:40:27;;;;;;;10.93;9.05;;;27.70;45.30;;;;;;6178286;22;20333;-57
2023/05/19 05:42:57;;;;;;;10.20;9.18;;;27.20;45.80;;;;;;6177356;22;20314;-57
2023/05/19 05:45:24;;;;;;;10.73;9.48;;;26.70;46.40;;;;;;6176296;23;20021;-57
2023/05/19 05:47:50;;;;;;;12.88;9.18;;;26.30;47.10;;;;;;6177851;22;20090;-56
2023/05/19 05:50:17;;;;;;;10.80;9.43;;;26.00;47.60;;;;;;6175724;22;20005;-58
2023/05/19 05:52:46;;;;;;;10.43;9.32;;;25.80;48.00;;;;;;6172396;22;20009;-57
2023/05/19 05:55:12;;;;;;;10.50;8.52;;;25.50;48.40;;;;;;6175955;22;20001;-57
2023/05/19 05:57:40;;;;;;;10.80;8.30;;;25.30;48.70;;;;;;6176500;23;20005;-58
2023/05/19 06:00:14;;;;;;;10.82;9.68;;;25.20;49.10;;;;;;6171149;22;20005;-57
2023/05/19 06:02:48;;;;;;;10.73;9.50;;;25.00;49.40;;;;;;6168937;22;20628;-56
2023/05/19 06:05:13;;;;;;;10.52;9.43;;;24.80;49.70;;;;;;6171486;23;20013;-57
2023/05/19 06:07:39;;;;;;;12.57;9.93;;;24.70;50.30;;;;;;6174678;22;20666;-56
2023/05/19 06:10:06;;;;;;;10.32;8.80;;;24.60;50.90;;;;;;6173666;22;20036;-57
2023/05/19 06:12:32;;;;;;;10.73;9.63;;;24.50;51.00;;;;;;6167079;22;20015;-58
2023/05/19 06:14:58;;;;;;;10.27;9.27;;;24.50;51.40;;;;;;6168962;22;20005;-57
2023/05/19 06:17:23;;;;;;;10.27;9.27;;;24.40;51.50;;;;;;6172488;22;20005;-56
2023/05/19 06:19:49;;;;;;;11.57;9.38;;;24.30;51.90;;;;;;6173217;22;20031;-57
2023/05/19 06:22:15;;;;;;;10.85;9.30;;;24.30;52.10;;;;;;6174603;22;20024;-57
2023/05/19 06:24:41;;;;;;;12.02;10.40;;;24.30;52.20;;;;;;6173977;22;20001;-57
2023/05/19 06:27:06;;;;;;;11.38;9.50;;;24.30;52.00;;;;;;6173559;22;20025;-57
2023/05/19 06:29:32;;;;;;;10.07;8.93;;;24.20;52.20;;;;;;6175059;22;20047;-55
2023/05/19 06:31:58;;;;;;;11.27;10.02;;;24.10;52.20;;;;;;6173706;22;20001;-56
2023/05/19 06:34:23;;;;;;;10.10;9.10;;;24.10;52.30;;;;;;6172646;22;20015;-56
2023/05/19 06:36:49;;;;;;;12.02;9.05;;;24.10;52.60;;;;;;6174350;22;20001;-58
2023/05/19 06:39:15;;;;;;;10.52;8.82;;;24.10;53.00;;;;;;6173952;22;20008;-57
2023/05/19 06:41:40;;;;;;;11.82;9.63;;;24.10;53.40;;;;;;6173007;23;20005;-58
2023/05/19 06:44:07;;;;;;;11.57;10.05;;;24.00;53.60;;;;;;6172231;22;20054;-56
2023/05/19 06:46:33;;;;;;;11.80;9.57;;;24.00;53.60;;;;;;6171955;22;20009;-56
2023/05/19 06:48:59;;;;;;;11.43;8.25;;;24.00;53.60;;;;;;6167249;22;20379;-54
2023/05/19 06:51:25;;;;;;;11.25;9.23;;;24.00;53.70;;;;;;6167265;22;20005;-55
2023/05/19 06:53:50;;;;;;;10.02;9.02;;;23.90;53.80;;;;;;6168785;22;20013;-56
2023/05/19 06:56:17;;;;;;;10.30;8.93;;;24.00;53.70;;;;;;6171377;22;20066;-57
2023/05/19 06:58:43;;;;;;;11.27;9.60;;;23.90;53.80;;;;;;6169319;22;20012;-57
2023/05/19 07:01:09;;;;;;;9.63;8.63;;;24.00;54.20;;;;;;6164848;22;20321;-56
2023/05/19 07:03:35;;;;;;;10.55;9.40;;;24.00;54.10;;;;;;6164387;22;20005;-56
2023/05/19 07:06:01;;;;;;;10.52;9.02;;;24.00;54.10;;;;;;6169408;23;20020;-56
2023/05/19 07:08:27;;;;;;;9.75;8.80;;;24.00;54.00;;;;;;6163711;22;20065;-58
2023/05/19 07:10:54;;;;;;;13.40;9.93;;;24.00;54.00;;;;;;6165817;22;20016;-55
2023/05/19 07:13:19;;;;;;;10.50;9.40;;;24.00;54.10;;;;;;6163240;22;20015;-56
2023/05/19 07:15:47;;;;;;;9.55;8.65;;;24.00;54.10;;;;;;6164014;22;20387;-55
2023/05/19 07:18:13;;;;;;;11.93;8.95;;;24.00;54.10;;;;;;6168892;22;20010;-57
2023/05/19 07:20:39;;;;;;;9.82;8.82;;;24.00;54.20;;;;;;6270476;22;20151;-57
2023/05/19 07:23:05;;;;;;;12.20;9.07;;;24.00;54.20;;;;;;6166824;22;20040;-58
2023/05/19 07:25:30;;;;;;;10.65;8.88;;;24.10;54.40;;;;;;6163903;22;20090;-55
2023/05/19 07:27:56;;;;;;;9.43;8.32;;;24.10;54.60;;;;;;6162817;22;20047;-57
2023/05/19 07:30:22;;;;;;;9.80;8.45;;;24.20;54.60;;;;;;6162159;22;20013;-58
2023/05/19 07:32:47;;;;;;;9.60;8.60;;;24.20;54.30;;;;;;6152020;22;20506;-57
2023/05/19 07:35:13;;;;;;;11.93;8.10;;;24.20;54.20;;;;;;6157771;22;20005;-58
2023/05/19 07:37:39;;;;;;;10.27;8.35;;;24.30;54.30;;;;;;6263679;22;20333;-56
2023/05/19 07:40:06;;;;;;;10.38;8.30;;;24.30;54.40;;;;;;6158055;22;20011;-58
2023/05/19 07:42:32;;;;;;;10.52;8.75;;;24.30;54.70;;;;;;6161680;22;20013;-58
2023/05/19 07:44:58;;;;;;;10.98;8.55;;;24.30;54.70;;;;;;6162011;22;20015;-58
2023/05/19 07:47:23;;;;;;;9.25;8.25;;;24.30;54.70;;;;;;6160138;22;20317;-58
2023/05/19 07:49:49;;;;;;;12.88;8.90;;;24.30;54.50;;;;;;6157289;22;20005;-59
2023/05/19 07:52:17;;;;;;;10.50;8.23;;;24.30;54.50;;;;;;6160250;22;20005;-58
2023/05/19 07:54:43;;;;;;;9.60;8.60;;;24.30;54.40;;;;;;6160957;23;20016;-57
2023/05/19 07:57:08;;;;;;;9.43;8.07;;;24.40;54.40;;;;;;6156736;22;20001;-57
2023/05/19 07:59:34;;;;;;;8.80;7.88;;;24.40;54.50;;;;;;6155396;22;20137;-56
2023/05/19 08:02:00;;;;;;;10.38;8.30;;;24.50;54.50;;;;;;6164214;22;20001;-57
2023/05/19 08:04:25;;;;;;;9.95;8.95;;;24.50;54.50;;;;;;6163314;22;20002;-59
2023/05/19 08:06:51;;;;;;;8.75;7.88;;;24.50;54.50;;;;;;6161859;22;20011;-57
2023/05/19 08:09:17;;;;;;;9.98;8.27;;;24.50;54.50;;;;;;6165355;22;20001;-55
2023/05/19 08:11:43;;;;;;;10.18;8.00;;;24.50;54.30;;;;;;6158749;22;20059;-55
2023/05/19 08:14:09;;;;;;;8.68;7.78;;;24.60;54.30;;;;;;6163725;22;20432;-57
2023/05/19 08:16:35;;;;;;;13.07;8.20;;;24.50;54.10;;;;;;6157648;22;20001;-57
2023/05/19 08:19:03;;;;;;;9.40;7.85;;;24.50;54.20;;;;;;6159330;22;20005;-57
2023/05/19 08:21:28;;;;;;;9.10;8.05;;;24.50;54.40;;;;;;6157332;22;20009;-58
2023/05/19 08:23:54;;;;;;;11.65;7.82;;;24.50;54.50;;;;;;6157414;22;20009;-58
2023/05/19 08:26:20;;;;;;;9.18;8.07;;;24.50;54.50;;;;;;6162760;22;20021;-57
2023/05/19 08:28:46;;;;;;;9.10;8.00;;;24.50;54.10;;;;;;6163529;22;20044;-58
2023/05/19 08:31:11;;;;;;;9.50;8.50;;;24.50;53.90;;;;;;6160370;22;20011;-57
2023/05/19 08:33:37;;;;;;;8.30;7.40;;;24.60;53.90;;;;;;6160185;22;20936;-58
2023/05/19 08:36:03;;;;;;;10.77;7.65;;;24.60;54.20;;;;;;6158137;22;20396;-57
2023/05/19 08:38:28;;;;;;;8.07;6.90;;;24.60;54.30;;;;;;6160493;22;20077;-58
2023/05/19 08:40:54;;;;;;;8.43;7.53;;;24.60;54.30;;;;;;6156582;22;20025;-56
2023/05/19 08:43:20;;;;;;;8.48;7.20;;;24.60;54.10;;;;;;6163241;22;20009;-54
2023/05/19 08:45:47;;;;;;;12.68;7.63;;;24.70;53.60;;;;;;6158134;23;20005;-56
2023/05/19 08:48:14;;;;;;;8.60;7.45;;;24.70;53.40;;;;;;6161757;23;20502;-56
2023/05/19 08:50:46;;;;;;;9.27;8.18;;;24.80;53.00;;;;;;6160813;22;20019;-58
2023/05/19 08:53:22;;;;;;;9.70;7.07;;;24.80;52.40;;;;;;6159158;22;20013;-57
2023/05/19 08:56:10;;;;;;;8.00;7.20;;;24.80;52.30;;;;;;6163262;23;20001;-57
2023/05/19 08:58:42;;;;;;;9.60;7.57;;;24.80;52.40;;;;;;6162782;22;20587;-58
2023/05/19 09:01:18;;;;;;;8.38;7.47;;;24.80;52.40;;;;;;6159877;22;20013;-58
2023/05/19 09:03:45;;;;;;;8.30;7.50;;;24.80;52.60;;;;;;6165289;23;20009;-58
2023/05/19 09:06:14;;;;;;;9.65;8.18;;;24.80;52.50;;;;;;6166150;22;20775;-57
2023/05/19 09:08:41;;;;;;;10.55;8.23;;;24.80;52.50;;;;;;6163853;22;20016;-58
2023/05/19 09:11:07;;;;;;;10.40;7.20;;;24.80;52.40;;;;;;6161191;22;20029;-56
2023/05/19 09:13:33;;;;;;;8.25;7.40;;;24.80;51.90;;;;;;6165071;22;20379;-55
2023/05/19 09:16:00;;;;;;;9.98;7.80;;;24.80;51.60;;;;;;6162978;22;20084;-57
2023/05/19 09:18:26;;;;;;;8.80;7.05;;;24.90;51.60;;;;;;6163826;22;20029;-57
2023/05/19 09:21:01;;;;;;;9.38;7.90;;;24.90;51.40;;;;;;6158709;22;20117;-57
2023/05/19 09:23:32;;;;;;;10.50;7.50;;;24.90;51.00;;;;;;6163015;22;20047;-57
2023/05/19 09:26:00;;;;;;;;;;;24.90;50.80;;;;;;6161656;22;20006;-57
2023/05/19 09:28:28;;;;;;;10.25;7.75;;;24.90;51.30;;;;;;6161305;23;19965;-57
2023/05/19 09:31:08;;;;;;;8.20;7.30;;;24.90;51.30;;;;;;6162103;22;20016;-56
2023/05/19 09:33:35;;;;;;;8.98;7.60;;;24.90;50.90;;;;;;6160442;22;20013;-57
2023/05/19 09:36:04;;;;;;;10.43;7.85;;;24.80;51.30;;;;;;6157528;22;20076;-57
2023/05/19 09:38:30;;;;;;;10.25;8.15;;;24.80;51.90;;;;;;6165377;22;20005;-58
2023/05/19 09:40:57;;;;;;;9.20;8.15;;;24.80;51.90;;;;;;6158241;22;20001;-56
2023/05/19 09:43:23;;;;;;;10.00;8.02;;;24.80;51.90;;;;;;6163186;22;20020;-55
2023/05/19 09:45:54;;;;;;;10.68;8.25;;;24.80;51.70;;;;;;6161018;22;20333;-56
2023/05/19 09:48:20;;;;;;;9.85;7.82;;;24.80;51.40;;;;;;6158273;22;20116;-56
2023/05/19 09:50:48;;;;;;;8.45;7.53;;;24.80;51.00;;;;;;6164458;22;20084;-56
2023/05/19 09:53:14;;;;;;;8.90;7.57;;;24.80;50.50;;;;;;6163414;22;20504;-57
2023/05/19 09:55:40;;;;;;;9.13;7.57;;;24.90;50.10;;;;;;6165355;22;20078;-56
2023/05/19 09:58:06;;;;;;;11.40;7.97;;;24.90;49.60;;;;;;6157348;22;20699;-57
2023/05/19 10:00:33;;;;;;;9.18;7.85;;;24.90;49.60;;;;;;6162432;22;20001;-59
2023/05/19 10:02:59;;;;;;;9.18;7.70;;;24.90;49.60;;;;;;6157082;22;20005;-57
2023/05/19 10:05:26;;;;;;;8.85;7.68;;;24.90;49.90;;;;;;6162484;22;20009;-58
2023/05/19 10:07:53;;;;;;;10.13;8.98;;;24.90;49.70;;;;;;6163658;22;20009;-56
2023/05/19 10:10:20;;;;;;;8.30;7.40;;;24.90;50.00;;;;;;6162236;22;20051;-56
2023/05/19 10:12:47;;;;;;;10.73;8.38;;;24.90;49.50;;;;;;6164673;22;20005;-56
2023/05/19 10:15:17;;;;;;;9.23;8.02;;;24.90;49.60;;;;;;6162798;22;20375;-56
2023/05/19 10:17:44;;;;;;;9.15;7.53;;;24.90;49.50;;;;;;6159935;22;20005;-57
2023/05/19 10:20:12;;;;;;;10.35;7.95;;;24.80;48.70;;;;;;6165213;22;20008;-56
2023/05/19 10:22:39;;;;;;;12.02;7.80;;;24.80;48.30;;;;;;6163694;22;20021;-55
2023/05/19 10:25:06;;;;;;;16.58;9.07;;;24.80;48.30;;;;;;6165896;22;20314;-56
2023/05/19 10:27:35;;;;;;;13.65;10.10;;;24.80;48.90;;;;;;6168233;22;20413;-57
2023/05/19 10:30:11;;;;;;;10.85;8.48;;;24.80;49.40;;;;;;6166681;22;20004;-57
2023/05/19 10:32:40;;;;;;;9.95;8.02;;;24.90;48.70;;;;;;6163869;22;20014;-54
2023/05/19 10:35:27;;;;;;;9.43;7.05;;;24.90;47.80;;;;;;6170354;22;20076;-57
2023/05/19 10:38:15;;;;;;;8.68;6.97;;;24.90;47.30;;;;;;6164231;22;20005;-57
2023/05/19 10:41:11;;;;;;;8.63;7.13;;;24.90;47.10;;;;;;6170616;22;20001;-58
2023/05/19 10:44:00;;;;;;;8.57;7.05;;;24.90;46.50;;;;;;6168428;23;20085;-56
2023/05/19 10:46:27;;;;;;;8.18;7.30;;;24.90;46.90;;;;;;6167589;22;20004;-57
2023/05/19 10:48:53;;;;;;;8.73;6.93;;;25.00;46.60;;;;;;6160471;23;20040;-58
2023/05/19 10:51:19;;;;;;;7.60;6.50;;;25.00;46.00;;;;;;6169934;22;20761;-56
2023/05/19 10:53:48;;;;;;;9.73;6.93;;;25.00;45.70;;;;;;6160593;22;20008;-59
2023/05/19 10:56:35;;;;;;;8.13;6.93;;;25.10;45.70;;;;;;6268000;22;20015;-57
2023/05/19 10:59:02;;;;;;;9.30;6.78;;;25.10;45.80;;;;;;6162678;22;20054;-58
2023/05/19 11:01:37;;;;;;;7.80;7.00;;;25.10;45.40;;;;;;6154901;22;20001;-57
2023/05/19 11:04:14;;;;;;;8.68;6.82;;;25.10;45.10;;;;;;6156839;22;20093;-57
2023/05/19 11:06:40;;;;;;;9.50;6.60;;;25.10;44.90;;;;;;6159157;22;20080;-56
2023/05/19 11:09:16;;;;;;;6.85;6.15;;;25.10;44.80;;;;;;6162383;22;20037;-57
2023/05/19 11:11:47;;;;;;;6.50;5.78;;;25.00;44.30;;;;;;6163369;22;20013;-57
2023/05/19 11:14:17;;;;;;;6.93;6.18;;;25.10;43.90;;;;;;6163260;22;20012;-56
2023/05/19 11:16:46;;;;;;;7.85;6.30;;;25.10;43.70;;;;;;6166281;22;20246;-58
2023/05/19 11:19:33;;;;;;;9.27;6.10;;;25.10;43.80;;;;;;6163083;22;20038;-57
2023/05/19 11:22:07;;;;;;;7.47;5.65;;;25.20;44.00;;;;;;6165672;22;20016;-57
2023/05/19 11:24:45;;;;;;;8.15;6.18;;;25.20;44.20;;;;;;6160154;22;20005;-57
2023/05/19 11:27:27;;;;;;;7.15;5.80;;;25.20;44.10;;;;;;6163884;22;20008;-56
2023/05/19 11:29:54;;;;;;;6.80;5.70;;;25.20;43.70;;;;;;6164267;22;20508;-57
2023/05/19 11:32:21;;;;;;;6.07;5.47;;;25.20;43.60;;;;;;6165622;22;20005;-58
2023/05/19 11:34:48;;;;;;;7.97;6.40;;;25.20;43.80;;;;;;6158696;22;20089;-59
2023/05/19 11:37:15;;;;;;;8.38;6.47;;;25.20;44.40;;;;;;6164973;22;20001;-56
2023/05/19 11:39:40;;;;;;;7.93;6.30;;;25.20;44.60;;;;;;6161455;23;20009;-57
2023/05/19 11:42:10;;;;;;;7.70;6.63;;;25.10;44.10;;;;;;6164283;22;20001;-57
2023/05/19 11:44:37;;;;;;;7.65;6.13;;;25.00;43.40;;;;;;6162150;23;20001;-56
2023/05/19 11:47:06;;;;;;;6.95;6.13;;;25.00;43.50;;;;;;6163893;22;20076;-54
2023/05/19 11:49:32;;;;;;;6.80;6.10;;;25.00;43.80;;;;;;6267240;22;20448;-58
2023/05/19 11:52:02;;;;;;;7.40;6.00;;;24.90;43.60;;;;;;6263705;22;20012;-57
2023/05/19 11:54:32;;;;;;;6.70;6.00;;;24.90;43.90;;;;;;6157739;23;20082;-56
2023/05/19 11:57:01;;;;;;;7.22;6.45;;;24.90;43.90;;;;;;6158486;23;20005;-58
2023/05/19 11:59:36;;;;;;;8.65;5.90;;;24.90;44.50;;;;;;6157471;22;20062;-57
2023/05/19 12:02:13;;;;;;;7.53;5.97;;;24.90;44.70;;;;;;6160685;22;20072;-58
2023/05/19 12:04:38;;;;;;;6.45;5.80;;;24.80;44.50;;;;;;6160977;22;20011;-57
2023/05/19 12:07:04;;;;;;;7.28;6.03;;;24.90;44.70;;;;;;6164109;22;20092;-55
2023/05/19 12:09:30;;;;;;;9.75;5.88;;;24.90;45.00;;;;;;6158080;22;20021;-57
2023/05/19 12:11:55;;;;;;;7.50;6.10;;;24.90;45.10;;;;;;6163941;22;20001;-58
2023/05/19 12:14:21;;;;;;;6.63;5.57;;;24.90;44.90;;;;;;6165562;22;20080;-57
2023/05/19 12:16:47;;;;;;;7.85;6.07;;;25.00;44.70;;;;;;6161955;22;20013;-59
2023/05/19 12:19:13;;;;;;;6.22;5.63;;;25.00;44.50;;;;;;6156904;22;20383;-58
2023/05/19 12:21:39;;;;;;;6.90;6.18;;;25.00;44.60;;;;;;6161067;22;20460;-58
2023/05/19 12:24:05;;;;;;;8.55;6.25;;;25.00;45.10;;;;;;6158387;22;20113;-57
2023/05/19 12:26:33;;;;;;;7.53;6.57;;;25.00;45.40;;;;;;6159768;23;20029;-58
2023/05/19 12:28:59;;;;;;;8.90;6.53;;;25.10;45.50;;;;;;6152665;23;20015;-58
2023/05/19 12:31:25;;;;;;;10.45;6.78;;;25.10;45.60;;;;;;6154789;22;20558;-58
2023/05/19 12:33:50;;;;;;;7.80;6.35;;;25.10;45.50;;;;;;6158100;22;20084;-59
2023/05/19 12:36:17;;;;;;;7.60;6.25;;;25.00;45.50;;;;;;6156517;22;20001;-56
2023/05/19 12:38:44;;;;;;;7.57;6.00;;;25.00;45.70;;;;;;6152874;22;20009;-58
2023/05/19 12:41:13;;;;;;;6.55;5.85;;;25.00;46.00;;;;;;6152380;22;20005;-57
2023/05/19 12:43:39;;;;;;;7.57;6.03;;;24.90;45.50;;;;;;6156189;23;20012;-58